Time;durP1;ratioP1;P1;durP2;ratioP2;P2;SDS_P1;SDS_P2;PMS_P1;PMS_P2;Temp;Humidity;BMP_temperature;BMP_pressure;BME280_temperature;BME280_humidity;BME280_pressure;Samples;Min_cycle;Max_cycle;Signal;HPM_P1;HPM_P2
2021/06/22 00:04:17;;;;;;;15.55;6.13;;;;;;;13.27;81.82;101479.31;10586589;28;20047;-58
2021/06/22 00:09:20;;;;;;;15.80;6.75;;;;;;;13.16;82.75;101464.13;10587566;28;20237;-58
2021/06/22 00:14:22;;;;;;;11.32;6.80;;;;;;;13.30;81.41;101463.34;10587359;28;20054;-58
2021/06/22 00:19:24;;;;;;;14.05;5.97;;;;;;;13.11;81.14;101453.03;10587132;28;20154;-58
2021/06/22 00:24:27;;;;;;;11.70;5.53;;;;;;;13.15;81.06;101460.66;10586967;28;20044;-58
2021/06/22 00:29:29;;;;;;;13.98;6.78;;;;;;;13.11;82.21;101453.03;10586859;28;20044;-58
2021/06/22 00:34:31;;;;;;;16.73;7.05;;;;;;;13.30;81.74;101440.50;10586516;28;20475;-58
2021/06/22 00:39:34;;;;;;;9.48;6.47;;;;;;;13.18;82.15;101457.84;10586097;28;20485;-58
2021/06/22 00:44:49;;;;;;;16.30;7.03;;;;;;;12.90;81.85;101457.75;10586683;28;20052;-58
2021/06/22 00:49:52;;;;;;;13.52;6.40;;;;;;;12.68;82.18;101458.94;10585168;28;20483;-58
2021/06/22 00:54:55;;;;;;;15.85;7.10;;;;;;;12.67;82.49;101474.78;10584782;28;20052;-57
2021/06/22 00:59:57;;;;;;;15.13;7.45;;;;;;;12.37;83.11;101480.78;10585532;28;20075;-58
2021/06/22 01:05:00;;;;;;;15.23;8.27;;;;;;;12.66;82.54;101478.34;10585666;28;20055;-58
2021/06/22 01:10:03;;;;;;;11.73;7.28;;;;;;;12.53;83.36;101462.44;10585268;28;20051;-58
2021/06/22 01:15:13;;;;;;;16.83;8.90;;;;;;;12.26;84.18;101469.09;10585509;28;20126;-58
2021/06/22 01:20:15;;;;;;;13.90;7.78;;;;;;;12.45;82.87;101470.72;10584943;28;20476;-58
2021/06/22 01:25:18;;;;;;;12.98;7.38;;;;;;;12.34;84.32;101458.19;10584698;28;20047;-58
2021/06/22 01:30:22;;;;;;;17.98;8.07;;;;;;;11.81;85.41;101464.47;10584388;28;20058;-58
2021/06/22 01:35:27;;;;;;;16.35;8.05;;;;;;;11.91;83.99;101470.97;10582916;28;20044;-58
2021/06/22 01:40:30;;;;;;;14.18;8.48;;;;;;;12.03;84.55;101482.59;10584840;28;20054;-58
2021/06/22 01:45:34;;;;;;;16.70;8.25;;;;;;;12.03;85.31;101477.34;10583736;28;20052;-58
2021/06/22 01:50:36;;;;;;;19.10;8.95;;;;;;;11.88;84.20;101473.69;10584606;28;20455;-58
2021/06/22 01:55:40;;;;;;;15.32;7.93;;;;;;;11.98;84.40;101471.47;10583885;28;20051;-58
2021/06/22 02:00:45;;;;;;;14.32;8.25;;;;;;;11.94;84.36;101476.03;10582252;28;20043;-59
2021/06/22 02:05:48;;;;;;;15.68;7.80;;;;;;;11.87;84.52;101493.00;10583871;28;20048;-58
2021/06/22 02:10:51;;;;;;;12.82;7.15;;;;;;;11.86;84.75;101489.53;10583864;28;20055;-58
2021/06/22 02:15:53;;;;;;;14.35;8.20;;;;;;;11.98;85.70;101497.72;10582609;28;20507;-57
2021/06/22 02:20:56;;;;;;;12.32;6.50;;;;;;;12.24;83.29;101491.13;10582714;28;20048;-58
2021/06/22 02:25:58;;;;;;;15.57;7.82;;;;;;;12.07;83.66;101494.63;10582083;28;20043;-57
2021/06/22 02:31:01;;;;;;;16.33;8.27;;;;;;;11.73;85.63;101485.84;10582122;28;20051;-58
2021/06/22 02:36:03;;;;;;;10.40;6.90;;;;;;;11.86;83.72;101486.91;10582002;28;20479;-58
2021/06/22 02:41:05;;;;;;;18.92;9.60;;;;;;;11.73;84.11;101475.34;10581769;28;20483;-58
2021/06/22 02:46:08;;;;;;;18.02;10.85;;;;;;;11.62;85.92;101478.53;10581649;28;20047;-58
2021/06/22 02:51:10;;;;;;;20.92;10.85;;;;;;;11.48;87.50;101471.38;10581346;28;20513;-58
2021/06/22 02:56:13;;;;;;;13.68;8.15;;;;;;;11.77;83.26;101471.66;10581546;28;20096;-58
2021/06/22 03:01:15;;;;;;;18.35;9.40;;;;;;;11.64;84.66;101479.28;10580901;28;20043;-58
2021/06/22 03:06:18;;;;;;;14.95;7.75;;;;;;;11.91;84.95;101484.06;10580739;28;20067;-58
2021/06/22 03:11:20;;;;;;;22.67;9.52;;;;;;;11.81;85.31;101470.53;10580581;28;20059;-59
2021/06/22 03:16:22;;;;;;;15.27;8.02;;;;;;;11.79;84.17;101482.06;10580557;28;20491;-57
2021/06/22 03:21:25;;;;;;;15.80;8.32;;;;;;;11.76;85.96;101495.34;10580797;28;20101;-59
2021/06/22 03:26:27;;;;;;;16.13;8.15;;;;;;;11.76;84.87;101493.56;10580227;28;20510;-58
2021/06/22 03:31:30;;;;;;;14.80;8.82;;;;;;;11.65;85.68;101493.25;10580601;28;20055;-58
2021/06/22 03:36:32;;;;;;;14.65;8.48;;;;;;;11.62;87.25;101493.41;10580570;28;20402;-59
2021/06/22 03:41:36;;;;;;;15.23;8.57;;;;;;;11.73;85.34;101508.59;10580155;28;20052;-58
2021/06/22 03:46:41;;;;;;;17.30;9.95;;;;;;;11.55;86.46;101515.63;10580741;28;20051;-57
2021/06/22 03:51:43;;;;;;;13.35;9.77;;;;;;;11.52;87.32;101521.88;10581103;28;20101;-58
2021/06/22 03:56:46;;;;;;;13.93;8.35;;;;;;;11.68;85.03;101512.31;10579828;28;20043;-58
2021/06/22 04:01:48;;;;;;;17.05;9.05;;;;;;;11.70;85.09;101515.72;10579583;28;20044;-58
2021/06/22 04:06:50;;;;;;;12.90;7.15;;;;;;;11.86;84.21;101518.38;10579851;28;20051;-58
2021/06/22 04:11:55;;;;;;;12.23;7.68;;;;;;;11.60;84.95;101516.22;10579769;28;20052;-57
2021/06/22 04:16:57;;;;;;;16.95;7.50;;;;;;;11.60;85.60;101524.97;10579384;28;20073;-59
2021/06/22 04:22:00;;;;;;;14.65;8.45;;;;;;;11.70;85.67;101525.34;10581928;28;20046;-59
2021/06/22 04:27:02;;;;;;;13.82;7.10;;;;;;;12.12;84.86;101521.50;10587604;28;20051;-58
2021/06/22 04:32:05;;;;;;;16.83;8.73;;;;;;;12.00;85.14;101529.97;10586958;28;20052;-58
2021/06/22 04:37:07;;;;;;;13.02;7.68;;;;;;;12.06;84.14;101520.00;10586535;28;20052;-58
2021/06/22 04:42:10;;;;;;;15.25;7.47;;;;;;;12.22;82.94;101520.06;10587122;28;20067;-58
2021/06/22 04:47:12;;;;;;;19.80;8.68;;;;;;;12.00;84.30;101514.22;10586635;28;20054;-58
2021/06/22 04:52:15;;;;;;;19.60;10.20;;;;;;;12.01;84.24;101516.78;10586137;28;20109;-58
2021/06/22 04:57:19;;;;;;;13.95;8.57;;;;;;;12.10;81.71;101520.69;10586005;28;20058;-58
2021/06/22 05:02:21;;;;;;;22.42;9.95;;;;;;;12.22;82.78;101517.44;10585479;28;20626;-57
2021/06/22 05:07:23;;;;;;;14.15;8.18;;;;;;;12.40;81.47;101528.72;10585698;28;20394;-57
2021/06/22 05:12:26;;;;;;;13.77;9.02;;;;;;;12.44;82.03;101539.94;10585848;28;20047;-57
2021/06/22 05:17:28;;;;;;;20.55;11.27;;;;;;;12.51;82.22;101541.31;10584345;28;20151;-58
2021/06/22 05:22:30;;;;;;;21.55;10.25;;;;;;;12.47;80.13;101550.25;10585154;28;20062;-58
2021/06/22 05:27:33;;;;;;;16.10;10.02;;;;;;;12.76;78.75;101556.59;10585273;28;20044;-58
2021/06/22 05:32:36;;;;;;;23.17;11.52;;;;;;;12.85;80.34;101563.13;10584855;28;20051;-58
2021/06/22 05:37:38;;;;;;;17.40;8.90;;;;;;;12.95;79.08;101566.09;10584480;28;20128;-58
2021/06/22 05:42:40;;;;;;;14.38;10.68;;;;;;;12.69;80.08;101565.72;10584673;28;20047;-57
2021/06/22 05:47:43;;;;;;;19.00;10.73;;;;;;;12.80;77.81;101557.25;10584215;28;20396;-58
2021/06/22 05:52:46;;;;;;;19.45;10.25;;;;;;;13.12;78.74;101563.38;10584487;28;20043;-58
2021/06/22 05:57:50;;;;;;;19.95;11.48;;;;;;;13.07;77.08;101557.50;10583262;28;20047;-58
2021/06/22 06:02:53;;;;;;;20.65;11.27;;;;;;;13.48;76.81;101557.00;10583956;28;20044;-58
2021/06/22 06:07:55;;;;;;;14.45;10.40;;;;;;;13.89;75.43;101561.63;10583897;28;20047;-59
2021/06/22 06:12:57;;;;;;;18.50;10.80;;;;;;;13.15;74.56;101563.19;10583294;28;20051;-58
2021/06/22 06:18:00;;;;;;;18.58;10.93;;;;;;;13.40;73.04;101564.47;10583022;28;20072;-58
2021/06/22 06:23:02;;;;;;;17.75;10.27;;;;;;;14.01;74.09;101570.56;10582838;28;20051;-59
2021/06/22 06:28:12;;;;;;;15.52;10.70;;;;;;;14.08;73.30;101561.34;10582778;28;20047;-58
2021/06/22 06:33:15;;;;;;;17.55;9.18;;;;;;;14.00;73.89;101576.75;10581590;28;20465;-58
2021/06/22 06:38:18;;;;;;;14.52;9.45;;;;;;;13.90;74.25;101568.59;10582088;28;20049;-58
2021/06/22 06:43:20;;;;;;;22.92;9.77;;;;;;;14.14;75.42;101578.59;10581863;28;20044;-58
2021/06/22 06:48:24;;;;;;;15.20;9.60;;;;;;;14.16;72.80;101575.88;10582322;28;20487;-58
2021/06/22 06:53:26;;;;;;;16.20;9.57;;;;;;;14.18;72.88;101576.63;10581942;28;20056;-58
2021/06/22 06:58:29;;;;;;;17.10;9.85;;;;;;;14.02;71.15;101581.94;10581126;28;20056;-57
2021/06/22 07:03:31;;;;;;;16.05;10.95;;;;;;;14.34;74.33;101594.97;10580275;28;20043;-58
2021/06/22 07:08:34;;;;;;;16.20;11.70;;;;;;;14.46;73.96;101600.34;10580917;28;20402;-58
2021/06/22 07:13:36;;;;;;;13.70;9.68;;;;;;;14.21;68.82;101606.25;10580847;28;20108;-57
2021/06/22 07:18:38;;;;;;;16.23;11.75;;;;;;;14.40;70.27;101600.72;10580929;28;20054;-58
2021/06/22 07:23:41;;;;;;;15.90;10.93;;;;;;;14.47;70.85;101594.16;10580585;28;20052;-58
2021/06/22 07:28:59;;;;;;;15.93;10.77;;;;;;;14.80;69.64;101597.44;10580305;28;20395;-57
2021/06/22 07:34:02;;;;;;;18.60;11.75;;;;;;;14.78;71.15;101601.97;10580562;28;20491;-58
2021/06/22 07:39:05;;;;;;;20.17;11.55;;;;;;;14.70;69.12;101606.88;10580504;28;20054;-58
2021/06/22 07:44:07;;;;;;;17.13;11.65;;;;;;;15.07;70.44;101605.41;10580352;28;20055;-58
2021/06/22 07:49:09;;;;;;;16.80;12.27;;;;;;;14.87;66.48;101606.66;10580712;28;20092;-58
2021/06/22 07:54:11;;;;;;;19.02;12.65;;;;;;;15.10;68.39;101614.94;10580059;28;20407;-57
2021/06/22 07:59:14;;;;;;;22.77;11.98;;;;;;;15.24;65.79;101615.72;10585982;28;20048;-58
2021/06/22 08:04:17;;;;;;;17.42;12.10;;;;;;;15.47;66.87;101612.56;10588213;28;20529;-58
2021/06/22 08:09:20;;;;;;;19.83;12.38;;;;;;;15.39;64.51;101607.78;10588242;28;20040;-58
2021/06/22 08:14:22;;;;;;;18.95;12.07;;;;;;;15.53;65.65;101617.41;10587949;28;20048;-58
2021/06/22 08:19:24;;;;;;;15.80;11.27;;;;;;;16.21;65.20;101608.53;10586584;28;20043;-58
2021/06/22 08:24:27;;;;;;;15.40;11.07;;;;;;;15.93;61.59;101620.94;10586744;28;20469;-58
2021/06/22 08:29:29;;;;;;;14.75;10.55;;;;;;;16.42;62.76;101621.19;10587077;28;20380;-58
2021/06/22 08:34:31;;;;;;;12.48;10.30;;;;;;;17.55;61.36;101622.00;10587083;28;20074;-58
2021/06/22 08:39:36;;;;;;;20.60;11.48;;;;;;;16.82;58.32;101629.00;10587026;28;20046;-57
2021/06/22 08:44:39;;;;;;;15.60;11.35;;;;;;;17.83;55.79;101623.44;10586875;28;20079;-58
2021/06/22 08:49:42;;;;;;;19.10;12.90;;;;;;;17.45;60.51;101625.34;10587425;28;20051;-58
2021/06/22 08:54:44;;;;;;;15.95;11.18;;;;;;;17.41;55.06;101623.03;10586077;28;20491;-58
2021/06/22 08:59:47;;;;;;;13.65;11.88;;;;;;;18.29;58.17;101635.03;10587248;28;20043;-58
2021/06/22 09:04:50;;;;;;;25.08;12.15;;;;;;;18.15;59.39;101628.16;10584847;28;20407;-58
2021/06/22 09:09:52;;;;;;;17.50;12.52;;;;;;;18.79;58.36;101622.28;10585220;28;20406;-58
2021/06/22 09:14:55;;;;;;;15.82;11.40;;;;;;;18.16;54.41;101622.72;10585852;28;20044;-58
2021/06/22 09:19:57;;;;;;;15.15;10.95;;;;;;;19.15;54.84;101617.72;10585507;28;20055;-58
2021/06/22 09:25:09;;;;;;;15.45;12.20;;;;;;;19.05;56.06;101614.09;10585396;28;20051;-58
2021/06/22 09:30:12;;;;;;;16.13;11.85;;;;;;;18.74;55.52;101613.84;10585365;28;20054;-59
2021/06/22 09:35:25;;;;;;;16.02;12.60;;;;;;;18.38;58.50;101618.44;10584492;28;20044;-58
2021/06/22 09:40:29;;;;;;;16.27;12.18;;;;;;;16.80;56.28;101625.63;10584822;28;20044;-58
2021/06/22 09:45:32;;;;;;;15.38;12.10;;;;;;;19.27;56.04;101615.88;10583473;28;20066;-59
2021/06/22 09:50:46;;;;;;;15.35;11.27;;;;;;;20.32;54.18;101607.97;10584653;28;20051;-58
2021/06/22 09:56:20;;;;;;;13.30;11.65;;;;;;;21.04;50.34;101605.34;10584085;28;20048;-59
2021/06/22 10:01:38;;;;;;;15.20;10.77;;;;;;;19.95;49.72;101605.81;10584014;28;20050;-59
2021/06/22 10:06:41;;;;;;;16.13;10.40;;;;;;;21.07;48.45;101610.41;10584192;28;20069;-59
2021/06/22 10:11:43;;;;;;;12.45;9.90;;;;;;;19.87;48.12;101605.63;10583847;28;20054;-59
2021/06/22 10:16:46;;;;;;;11.32;8.45;;;;;;;20.54;46.52;101591.03;10583316;28;20039;-58
2021/06/22 10:21:48;;;;;;;13.10;9.68;;;;;;;21.67;49.25;101603.19;10582515;28;20052;-59
2021/06/22 10:26:52;;;;;;;11.73;8.13;;;;;;;21.35;49.41;101595.47;10582944;28;20047;-58
2021/06/22 10:31:56;;;;;;;13.75;8.98;;;;;;;19.45;48.93;101602.88;10583068;28;20395;-59
2021/06/22 10:37:20;;;;;;;12.40;9.13;;;;;;;20.49;47.75;101589.72;10582485;28;20043;-59
2021/06/22 10:42:23;;;;;;;10.60;8.80;;;;;;;21.54;45.94;101591.16;10582828;28;20048;-59
2021/06/22 10:47:33;;;;;;;8.57;7.40;;;;;;;20.38;43.81;101591.50;10582861;28;20055;-59
2021/06/22 10:52:42;;;;;;;11.85;6.75;;;;;;;20.60;49.45;101586.97;10564624;28;20051;-59
2021/06/22 10:58:00;;;;;;;16.85;9.52;;;;;;;21.56;48.15;101587.34;10582172;28;20048;-59
2021/06/22 11:03:06;;;;;;;9.73;7.07;;;;;;;22.07;45.15;101598.63;10582415;28;20047;-59
2021/06/22 11:08:15;;;;;;;8.65;6.35;;;;;;;20.51;45.27;101583.31;10581477;28;20052;-59
2021/06/22 11:13:35;;;;;;;10.70;6.85;;;;;;;23.07;41.08;101594.47;10581438;28;20502;-59
2021/06/22 11:18:55;;;;;;;8.82;6.60;;;;;;;22.47;42.89;101594.06;10581300;28;20048;-59
2021/06/22 11:24:00;;;;;;;9.73;6.65;;;;;;;22.09;42.60;101596.69;10581814;28;20047;-59
2021/06/22 11:29:04;;;;;;;7.60;6.85;;;;;;;21.55;46.14;101604.28;10580817;28;20058;-59
2021/06/22 11:34:09;;;;;;;9.18;6.05;;;;;;;23.78;42.83;101597.28;10588794;28;20398;-60
2021/06/22 11:39:32;;;;;;;8.25;5.80;;;;;;;22.21;40.87;101595.50;10589907;28;20047;-60
2021/06/22 11:44:43;;;;;;;7.25;5.40;;;;;;;24.60;40.18;101587.94;10588987;28;20514;-60
2021/06/22 11:49:49;;;;;;;12.02;5.47;;;;;;;23.53;40.19;101595.22;10589528;28;20050;-59
2021/06/22 11:54:59;;;;;;;9.30;6.00;;;;;;;23.24;40.02;101591.97;10589515;28;20044;-60
2021/06/22 12:00:07;;;;;;;8.47;5.97;;;;;;;23.17;38.76;101583.72;10588573;27;20043;-59
2021/06/22 12:05:13;;;;;;;7.20;5.50;;;;;;;22.42;41.01;101586.47;10588923;28;20047;-60
2021/06/22 12:10:17;;;;;;;7.72;5.30;;;;;;;23.41;40.06;101585.78;10588628;28;20059;-59
2021/06/22 12:15:34;;;;;;;7.75;5.40;;;;;;;22.94;41.63;101576.09;10588449;28;20044;-59
2021/06/22 12:20:42;;;;;;;6.50;4.13;;;;;;;24.51;40.87;101572.84;10588292;28;20079;-60
2021/06/22 12:25:50;;;;;;;8.50;4.72;;;;;;;23.19;43.91;101577.22;10587792;28;20069;-59
2021/06/22 12:30:59;;;;;;;7.78;4.90;;;;;;;22.16;36.64;101583.63;10586366;28;20044;-59
2021/06/22 12:36:04;;;;;;;9.32;4.28;;;;;;;22.25;40.24;101580.06;10587450;28;20399;-60
2021/06/22 12:41:09;;;;;;;6.10;4.60;;;;;;;22.82;38.81;101574.63;10586497;28;20046;-60
2021/06/22 12:46:14;;;;;;;13.88;6.40;;;;;;;23.92;38.90;101581.53;10586392;28;20130;-59
2021/06/22 12:51:17;;;;;;;7.45;5.55;;;;;;;22.61;40.13;101586.41;10586880;28;20552;-60
2021/06/22 12:56:21;;;;;;;8.32;6.20;;;;;;;22.93;44.02;101582.44;10585207;28;20043;-59
2021/06/22 13:01:37;;;;;;;9.32;5.90;;;;;;;21.97;44.96;101581.81;10586828;28;20044;-59
2021/06/22 13:06:44;;;;;;;7.60;5.65;;;;;;;23.04;42.42;101581.38;10586332;28;20044;-59
2021/06/22 13:11:51;;;;;;;8.93;6.07;;;;;;;22.35;45.56;101580.06;10586154;28;20055;-59
2021/06/22 13:17:05;;;;;;;10.73;5.97;;;;;;;23.28;44.28;101586.16;10585739;28;20378;-59
2021/06/22 13:22:08;;;;;;;6.10;5.40;;;;;;;22.45;39.56;101578.19;10584414;28;20055;-59
2021/06/22 13:27:16;;;;;;;6.88;5.75;;;;;;;22.73;44.07;101591.53;10585571;28;20047;-58
2021/06/22 13:32:39;;;;;;;10.15;6.10;;;;;;;21.25;45.48;101598.09;10585075;28;20097;-59
2021/06/22 13:38:04;;;;;;;8.52;6.75;;;;;;;19.99;44.50;101593.13;10584999;28;20063;-60
2021/06/22 13:43:14;;;;;;;6.80;4.85;;;;;;;23.03;42.50;101587.69;10584351;28;20040;-60
2021/06/22 13:48:22;;;;;;;6.63;4.85;;;;;;;23.34;41.55;101587.38;10584506;28;20058;-59
2021/06/22 13:53:46;;;;;;;7.03;5.13;;;;;;;21.06;44.74;101580.25;10583221;28;20058;-59
2021/06/22 13:58:49;;;;;;;5.90;4.47;;;;;;;22.56;41.85;101586.00;10583629;28;20094;-59
2021/06/22 14:03:56;;;;;;;7.93;4.40;;;;;;;23.31;39.96;101585.00;10583639;28;20054;-59
2021/06/22 14:08:59;;;;;;;8.18;4.25;;;;;;;21.79;43.88;101587.06;10583108;28;20487;-59
2021/06/22 14:14:01;;;;;;;4.20;3.83;;;;;;;21.41;45.95;101586.88;10582953;28;20462;-59
2021/06/22 14:19:04;;;;;;;8.25;4.35;;;;;;;22.03;43.63;101590.09;10582895;28;20055;-59
2021/06/22 14:24:06;;;;;;;9.30;3.80;;;;;;;19.99;48.55;101607.25;10583119;28;20409;-58
2021/06/22 14:29:09;;;;;;;10.02;4.32;;;;;;;21.79;47.40;101603.88;10582805;28;20050;-60
2021/06/22 14:34:14;;;;;;;15.88;5.45;;;;;;;21.06;44.90;101601.56;10582574;28;20219;-59
2021/06/22 14:39:16;;;;;;;8.25;3.72;;;;;;;22.74;46.49;101604.72;10582759;27;20391;-59
2021/06/22 14:44:19;;;;;;;6.60;3.80;;;;;;;21.61;46.59;101610.91;10582237;28;20094;-59
2021/06/22 14:49:21;;;;;;;10.35;4.22;;;;;;;20.08;47.35;101610.09;10582398;28;20044;-58
2021/06/22 14:54:23;;;;;;;7.82;3.90;;;;;;;21.02;52.38;101604.66;10582239;28;20051;-59
2021/06/22 14:59:26;;;;;;;6.68;4.05;;;;;;;20.63;48.07;101612.50;10581884;28;20395;-59
2021/06/22 15:04:28;;;;;;;8.23;3.22;;;;;;;20.96;49.44;101609.53;10581329;28;20051;-60
2021/06/22 15:09:31;;;;;;;7.97;4.05;;;;;;;20.34;48.26;101606.06;10582037;28;20048;-59
2021/06/22 15:14:33;;;;;;;13.80;5.15;;;;;;;20.30;46.65;101617.91;10581148;28;20056;-60
2021/06/22 15:19:36;;;;;;;8.65;3.88;;;;;;;20.58;51.60;101608.41;10581722;28;20134;-60
2021/06/22 15:24:39;;;;;;;12.55;3.83;;;;;;;21.40;48.33;101613.66;10580744;28;20051;-59
2021/06/22 15:29:41;;;;;;;8.40;3.63;;;;;;;20.42;48.48;101614.22;10581260;28;20055;-60
2021/06/22 15:34:43;;;;;;;8.32;4.15;;;;;;;19.62;50.58;101625.41;10581306;28;20055;-59
2021/06/22 15:39:46;;;;;;;12.43;4.13;;;;;;;19.60;50.41;101619.34;10580915;28;20479;-59
2021/06/22 15:44:49;;;;;;;8.23;3.83;;;;;;;19.37;53.07;101623.94;10580784;28;20051;-59
2021/06/22 15:49:51;;;;;;;5.53;3.70;;;;;;;19.67;52.77;101632.03;10580380;28;20099;-60
2021/06/22 15:54:53;;;;;;;8.27;3.65;;;;;;;19.08;53.63;101624.44;10580232;28;20047;-60
2021/06/22 15:59:56;;;;;;;7.60;3.97;;;;;;;19.10;53.27;101633.16;10580422;28;20402;-59
2021/06/22 16:04:58;;;;;;;10.02;4.00;;;;;;;18.87;54.30;101632.34;10581064;28;20047;-58
2021/06/22 16:10:01;;;;;;;5.85;3.42;;;;;;;19.08;54.72;101632.41;10580513;28;20047;-60
2021/06/22 16:15:04;;;;;;;6.53;3.05;;;;;;;19.29;55.79;101638.66;10580648;28;20058;-59
2021/06/22 16:20:08;;;;;;;6.82;3.13;;;;;;;18.79;56.32;101635.56;10586221;28;20058;-59
2021/06/22 16:25:11;;;;;;;7.68;3.15;;;;;;;18.77;53.32;101639.31;10588228;28;20051;-58
2021/06/22 16:30:14;;;;;;;6.15;3.58;;;;;;;18.96;55.00;101634.25;10588600;28;20047;-60
2021/06/22 16:35:17;;;;;;;7.95;3.75;;;;;;;18.93;56.34;101645.13;10587593;28;20054;-59
2021/06/22 16:40:19;;;;;;;6.70;3.45;;;;;;;18.42;55.66;101656.16;10587249;28;20044;-59
2021/06/22 16:45:22;;;;;;;7.00;3.80;;;;;;;18.26;56.22;101662.63;10587153;28;20070;-59
2021/06/22 16:50:26;;;;;;;7.85;4.05;;;;;;;18.55;57.61;101667.50;10587116;28;20043;-58
2021/06/22 16:55:28;;;;;;;7.55;3.53;;;;;;;18.08;57.18;101664.03;10586629;28;20411;-59
2021/06/22 17:00:36;;;;;;;9.40;3.72;;;;;;;17.74;58.30;101670.00;10586731;28;20043;-59
2021/06/22 17:05:39;;;;;;;10.27;4.07;;;;;;;17.67;57.85;101668.78;10586619;28;20044;-60
2021/06/22 17:10:41;;;;;;;8.38;4.18;;;;;;;17.54;57.85;101674.13;10586541;28;20044;-59
2021/06/22 17:15:43;;;;;;;11.30;4.20;;;;;;;17.90;57.91;101682.16;10584975;28;20054;-59
2021/06/22 17:20:46;;;;;;;9.65;3.95;;;;;;;17.83;57.09;101685.22;10586138;28;20054;-60
2021/06/22 17:25:50;;;;;;;9.65;3.42;;;;;;;17.58;58.11;101680.88;10584358;28;20384;-59
2021/06/22 17:30:52;;;;;;;10.50;4.32;;;;;;;17.45;60.15;101698.63;10585759;28;20074;-60
2021/06/22 17:35:55;;;;;;;11.77;4.50;;;;;;;17.23;60.52;101699.31;10585160;28;20483;-59
2021/06/22 17:40:57;;;;;;;11.98;4.90;;;;;;;17.18;65.41;101715.53;10585072;28;20051;-59
2021/06/22 17:45:59;;;;;;;11.93;6.38;;;;;;;16.57;67.66;101719.75;10584094;28;20517;-58
2021/06/22 17:51:02;;;;;;;8.25;6.25;;;;;;;16.25;69.55;101733.34;10584703;28;20052;-59
2021/06/22 17:56:05;;;;;;;10.73;7.95;;;;;;;15.82;74.92;101734.38;10584130;28;20054;-58
2021/06/22 18:01:07;;;;;;;16.10;7.50;;;;;;;16.27;74.43;101740.22;10583545;28;20376;-59
2021/06/22 18:06:10;;;;;;;11.73;7.90;;;;;;;15.94;72.92;101746.75;10584290;28;20103;-59
2021/06/22 18:11:12;;;;;;;13.02;7.78;;;;;;;15.55;74.75;101748.34;10583343;28;20063;-59
2021/06/22 18:16:15;;;;;;;15.43;7.85;;;;;;;15.84;73.90;101758.03;10582994;28;20467;-58
2021/06/22 18:21:17;;;;;;;11.20;7.60;;;;;;;15.72;73.89;101754.34;10582792;28;20485;-58
2021/06/22 18:26:20;;;;;;;7.45;6.68;;;;;;;15.65;72.27;101760.94;10582699;28;20051;-58
2021/06/22 18:31:22;;;;;;;13.85;8.40;;;;;;;15.57;76.12;101766.72;10582745;28;20052;-58
2021/06/22 18:36:24;;;;;;;16.33;8.55;;;;;;;15.57;77.72;101764.94;10582045;28;20040;-59
2021/06/22 18:41:28;;;;;;;15.10;9.40;;;;;;;15.43;78.71;101778.13;10581961;28;20047;-58
2021/06/22 18:46:30;;;;;;;16.50;10.13;;;;;;;15.35;79.48;101776.00;10580551;28;20052;-59
2021/06/22 18:51:34;;;;;;;18.70;11.15;;;;;;;15.16;81.78;101783.31;10582090;28;20108;-58
2021/06/22 18:56:36;;;;;;;14.82;10.90;;;;;;;15.14;81.80;101793.13;10580337;28;20039;-59
2021/06/22 19:01:38;;;;;;;18.48;12.75;;;;;;;15.07;80.58;101791.81;10581495;28;20055;-58
2021/06/22 19:06:41;;;;;;;22.27;13.45;;;;;;;15.01;82.24;101788.63;10581632;28;20044;-58
2021/06/22 19:11:43;;;;;;;21.42;12.38;;;;;;;14.96;80.67;101795.94;10580881;28;20051;-58
2021/06/22 19:16:49;;;;;;;17.33;11.80;;;;;;;14.90;80.96;101798.09;10580812;28;20380;-58
2021/06/22 19:21:53;;;;;;;17.10;13.95;;;;;;;14.73;81.67;101805.22;10580935;28;20053;-58
2021/06/22 19:26:55;;;;;;;16.65;13.23;;;;;;;14.59;82.21;101807.81;10580694;28;20043;-59
2021/06/22 19:31:57;;;;;;;21.83;14.18;;;;;;;14.65;82.25;101812.72;10581024;28;20059;-58
2021/06/22 19:37:00;;;;;;;26.95;17.73;;;;;;;14.58;82.24;101816.63;10579481;28;20506;-58
2021/06/22 19:42:02;;;;;;;20.98;15.15;;;;;;;14.60;82.49;101820.06;10581120;28;20047;-58
2021/06/22 19:47:05;;;;;;;17.95;13.13;;;;;;;14.45;83.31;101822.59;10580274;28;20055;-58
2021/06/22 19:52:07;;;;;;;19.80;13.93;;;;;;;14.41;83.09;101823.72;10582967;28;20152;-59
2021/06/22 19:57:10;;;;;;;23.80;16.13;;;;;;;14.47;82.88;101822.50;10588692;28;20352;-58
2021/06/22 20:02:13;;;;;;;24.92;15.43;;;;;;;14.34;82.09;101829.41;10588650;28;20048;-58
2021/06/22 20:07:15;;;;;;;17.40;15.55;;;;;;;14.26;82.80;101830.72;10588328;28;20043;-58
2021/06/22 20:12:18;;;;;;;16.25;14.02;;;;;;;14.27;83.35;101844.72;10587865;28;20048;-57
2021/06/22 20:17:21;;;;;;;18.95;14.57;;;;;;;14.15;83.84;101842.78;10588201;28;20055;-57
2021/06/22 20:22:25;;;;;;;21.05;15.00;;;;;;;14.12;84.22;101843.78;10587608;28;20043;-58
2021/06/22 20:27:27;;;;;;;17.15;14.52;;;;;;;14.03;83.79;101853.06;10588079;28;20048;-58
2021/06/22 20:32:30;;;;;;;20.92;17.00;;;;;;;14.00;84.85;101855.84;10587408;28;20047;-58
2021/06/22 20:37:32;;;;;;;19.40;14.32;;;;;;;13.95;84.44;101855.25;10587084;28;20054;-57
2021/06/22 20:42:35;;;;;;;17.80;15.88;;;;;;;13.99;84.59;101858.59;10586994;28;20051;-58
2021/06/22 20:47:37;;;;;;;21.75;16.27;;;;;;;13.93;84.70;101860.59;10586631;28;20052;-58
2021/06/22 20:52:40;;;;;;;16.45;13.38;;;;;;;13.94;83.73;101861.47;10586474;28;20048;-58
2021/06/22 20:57:45;;;;;;;24.00;16.55;;;;;;;13.60;84.70;101865.94;10586006;28;20514;-58
2021/06/22 21:02:47;;;;;;;21.20;15.70;;;;;;;13.76;84.88;101860.69;10585804;28;20044;-58
2021/06/22 21:07:50;;;;;;;18.92;13.63;;;;;;;13.77;84.55;101872.03;10585726;28;20066;-59
2021/06/22 21:12:52;;;;;;;17.38;11.75;;;;;;;13.61;83.32;101875.50;10585431;28;20052;-59
2021/06/22 21:17:54;;;;;;;18.95;14.27;;;;;;;13.71;84.93;101881.13;10585333;28;20126;-57
2021/06/22 21:22:57;;;;;;;25.33;16.40;;;;;;;13.73;85.83;101885.41;10585303;28;20044;-57
2021/06/22 21:28:00;;;;;;;17.63;11.60;;;;;;;13.41;83.72;101907.28;10584874;28;20047;-58
2021/06/22 21:33:03;;;;;;;16.08;11.98;;;;;;;13.44;84.60;101907.13;10585033;28;20052;-58
2021/06/22 21:38:05;;;;;;;20.77;12.63;;;;;;;13.68;81.81;101915.50;10585035;28;20044;-58
2021/06/22 21:43:08;;;;;;;17.60;13.00;;;;;;;13.35;85.60;101921.59;10584573;28;20051;-58
2021/06/22 21:48:10;;;;;;;22.05;12.70;;;;;;;13.55;85.33;101921.41;10584654;28;20399;-58
2021/06/22 21:53:12;;;;;;;18.63;13.43;;;;;;;13.43;84.30;101934.34;10584364;28;20052;-58
2021/06/22 21:58:15;;;;;;;16.60;12.82;;;;;;;13.39;86.12;101941.53;10583881;28;20043;-59
2021/06/22 22:03:17;;;;;;;27.85;16.88;;;;;;;13.49;85.11;101940.13;10584790;28;20051;-58
2021/06/22 22:08:20;;;;;;;19.63;13.40;;;;;;;13.18;86.07;101948.72;10583579;28;20049;-59
2021/06/22 22:13:22;;;;;;;22.48;12.50;;;;;;;13.30;84.98;101953.34;10583748;28;20048;-58
2021/06/22 22:18:24;;;;;;;19.20;10.65;;;;;;;13.33;84.21;101953.25;10583324;28;20047;-59
2021/06/22 22:23:27;;;;;;;21.55;10.07;;;;;;;13.31;81.55;101948.94;10582873;28;20052;-59
2021/06/22 22:28:29;;;;;;;19.85;10.80;;;;;;;13.17;85.19;101949.63;10581085;28;20046;-59
2021/06/22 22:33:32;;;;;;;19.73;10.18;;;;;;;13.16;85.43;101956.69;10582434;28;20509;-59
2021/06/22 22:38:34;;;;;;;16.65;10.93;;;;;;;13.26;85.51;101948.31;10582122;28;20039;-59
2021/06/22 22:43:39;;;;;;;14.38;11.02;;;;;;;12.98;86.17;101947.09;10582204;28;20044;-59
2021/06/22 22:48:41;;;;;;;20.60;11.75;;;;;;;13.02;82.83;101954.72;10581633;28;20056;-60
2021/06/22 22:53:43;;;;;;;19.58;11.02;;;;;;;13.17;85.13;101960.16;10580737;28;20059;-60
2021/06/22 22:58:45;;;;;;;23.13;12.27;;;;;;;13.15;85.19;101962.03;10581706;28;20044;-60
2021/06/22 23:03:48;;;;;;;18.17;11.35;;;;;;;13.04;85.00;101959.91;10581785;28;20071;-59